createdAt,value
2023-05-14T00:03:06.250Z,95610.59
2023-05-14T00:08:10.073Z,95600.94
2023-05-14T00:13:15.885Z,95603.38
2023-05-14T00:18:26.865Z,95607.97
2023-05-14T00:23:29.721Z,95599.38
2023-05-14T00:28:34.937Z,95596.69
2023-05-14T00:33:37.784Z,95601.00
2023-05-14T00:38:41.541Z,95601.50
2023-05-14T00:43:50.199Z,95600.47
2023-05-14T00:48:53.200Z,95598.88
2023-05-14T00:53:55.968Z,95594.88
2023-05-14T00:59:02.162Z,95586.53
2023-05-14T01:04:08.167Z,95594.88
2023-05-14T01:09:14.028Z,95591.63
2023-05-14T01:14:19.553Z,95584.94
2023-05-14T01:19:24.759Z,95590.31
2023-05-14T01:24:31.448Z,95590.84
2023-05-14T01:29:34.976Z,95579.03
2023-05-14T01:34:41.425Z,95581.47
2023-05-14T01:39:45.573Z,95577.16
2023-05-14T01:44:52.375Z,95568.59
2023-05-14T01:49:58.300Z,95571.00
2023-05-14T01:55:01.771Z,95563.47
2023-05-14T02:00:06.537Z,95565.13
2023-05-14T02:05:11.646Z,95557.88
2023-05-14T02:10:18.302Z,95556.50
2023-05-14T02:15:22.016Z,95554.38
2023-05-14T02:20:28.796Z,95561.34
2023-05-14T02:25:32.388Z,95562.44
2023-05-14T02:30:35.170Z,95551.16
2023-05-14T02:35:38.687Z,95552.25
2023-05-14T02:40:43.739Z,95563.78
2023-05-14T02:45:47.186Z,95557.63
2023-05-14T02:50:54.087Z,95559.75
2023-05-14T02:56:02.311Z,95543.94
2023-05-14T03:01:05.392Z,95549.56
2023-05-14T03:06:08.591Z,95546.88
2023-05-14T03:11:11.380Z,95547.69
2023-05-14T03:16:15.939Z,95543.13
2023-05-14T03:21:18.841Z,95540.44
2023-05-14T03:26:22.058Z,95538.31
2023-05-14T03:31:27.225Z,95536.69
2023-05-14T03:36:34.994Z,95536.16
2023-05-14T03:41:40.113Z,95543.13
2023-05-14T03:46:44.746Z,95535.63
2023-05-14T03:51:47.594Z,95533.75
2023-05-14T03:56:51.967Z,95528.94
2023-05-14T04:01:56.251Z,95527.06
2023-05-14T04:07:00.092Z,95525.69
2023-05-14T04:12:11.106Z,95524.63
2023-05-14T04:17:17.928Z,95521.69
2023-05-14T04:22:27.767Z,95527.59
2023-05-14T04:27:30.995Z,95524.34
2023-05-14T04:32:36.675Z,95527.59
2023-05-14T04:37:39.451Z,95532.41
2023-05-14T04:42:44.691Z,95536.41
2023-05-14T04:47:47.503Z,95536.97
2023-05-14T04:52:50.878Z,95538.81
2023-05-14T04:57:56.448Z,95543.13
2023-05-14T05:03:04.982Z,95538.84
2023-05-14T05:08:12.140Z,95542.31
2023-05-14T05:13:17.230Z,95542.34
2023-05-14T05:18:21.503Z,95544.75
2023-05-14T05:23:25.357Z,95540.47
2023-05-14T05:28:28.592Z,95547.44
2023-05-14T05:33:31.211Z,95544.22
2023-05-14T05:38:37.051Z,95542.06
2023-05-14T05:43:42.346Z,95545.84
2023-05-14T05:48:46.299Z,95541.78
2023-05-14T05:53:49.515Z,95551.16
2023-05-14T05:58:58.243Z,95560.84
2023-05-14T06:04:05.574Z,95552.78
2023-05-14T06:09:09.017Z,95546.34
2023-05-14T06:14:19.718Z,95549.84
2023-05-14T06:19:25.350Z,95551.97
2023-05-14T06:24:31.087Z,95538.28
2023-05-14T06:29:34.226Z,95535.31
2023-05-14T06:34:40.836Z,95535.78
2023-05-14T06:39:54.699Z,95539.31
2023-05-14T06:45:11.555Z,95535.75
2023-05-14T06:50:14.865Z,95534.47
2023-05-14T06:55:24.681Z,95535.47
2023-05-14T07:00:29.294Z,95533.88
2023-05-14T07:05:34.364Z,95534.44
2023-05-14T07:10:40.622Z,95530.91
2023-05-14T07:15:48.534Z,95514.88
2023-05-14T07:21:01.732Z,95503.78
2023-05-14T07:26:05.181Z,95505.47
2023-05-14T07:31:10.931Z,95505.25
2023-05-14T07:36:18.857Z,95494.97
2023-05-14T07:41:27.106Z,95502.06
2023-05-14T07:46:31.308Z,95502.13
2023-05-14T07:51:35.797Z,95488.97
2023-05-14T07:56:39.412Z,95480.22
2023-05-14T08:01:48.333Z,95480.63
2023-05-14T08:06:58.414Z,95475.44
2023-05-14T08:12:05.818Z,95483.25
2023-05-14T08:17:18.710Z,95478.28
2023-05-14T08:22:26.349Z,95479.66
2023-05-14T08:27:35.420Z,95491.75
2023-05-14T08:32:39.768Z,95492.84
2023-05-14T08:37:43.703Z,95488.03
2023-05-14T08:42:57.344Z,95488.97
2023-05-14T08:48:03.182Z,95484.66
2023-05-14T08:53:07.753Z,95480.78
2023-05-14T08:58:13.825Z,95484.31
2023-05-14T09:03:18.805Z,95485.63
2023-05-14T09:08:24.528Z,95483.47
2023-05-14T09:13:28.425Z,95479.56
2023-05-14T09:18:35.302Z,95463.47
2023-05-14T09:23:42.584Z,95456.66
2023-05-14T09:28:47.401Z,95452.81
2023-05-14T09:33:54.406Z,95456.31
2023-05-14T09:39:00.686Z,95464.94
2023-05-14T09:44:06.678Z,95455.38
2023-05-14T09:49:10.722Z,95447.00
2023-05-14T09:54:17.455Z,95439.31
2023-05-14T09:59:20.684Z,95434.84
2023-05-14T10:04:29.798Z,95426.31
2023-05-14T10:09:47.060Z,95444.00
2023-05-14T10:15:03.045Z,95449.53
2023-05-14T10:20:11.963Z,95458.59
2023-05-14T10:25:17.259Z,95458.91
2023-05-14T10:30:24.631Z,95450.47
2023-05-14T10:35:29.571Z,95451.91
2023-05-14T10:40:33.477Z,95460.97
2023-05-14T10:45:36.336Z,95454.84
2023-05-14T10:50:45.247Z,95456.84
2023-05-14T10:55:52.520Z,95456.09
2023-05-14T11:00:58.112Z,95445.44
2023-05-14T11:06:05.336Z,95448.53
2023-05-14T11:11:13.764Z,95448.53
2023-05-14T11:16:23.300Z,95437.53
2023-05-14T11:21:27.643Z,95425.06
2023-05-14T11:26:35.167Z,95417.88
2023-05-14T11:31:52.664Z,95416.03
2023-05-14T11:37:08.861Z,95402.09
2023-05-14T11:42:21.746Z,95397.28
2023-05-14T11:47:26.396Z,95405.59
2023-05-14T11:52:34.608Z,95386.88
2023-05-14T11:57:42.217Z,95381.78
2023-05-14T12:02:46.356Z,95383.09
2023-05-14T12:07:56.798Z,95368.03
2023-05-14T12:13:07.371Z,95359.53
2023-05-14T12:18:24.650Z,95343.69
2023-05-14T12:23:46.356Z,95337.81
2023-05-14T12:28:58.160Z,95324.09
2023-05-14T12:34:02.192Z,95321.69
2023-05-14T12:39:09.098Z,95324.72
2023-05-14T12:44:16.599Z,95311.00
2023-05-14T12:49:20.097Z,95300.81
2023-05-14T12:54:29.634Z,95281.34
2023-05-14T12:59:44.793Z,95283.34
2023-05-14T13:04:49.169Z,95277.19
2023-05-14T13:09:55.506Z,95284.69
2023-05-14T13:15:01.788Z,95278.94
2023-05-14T13:20:07.579Z,95261.50
2023-05-14T13:25:23.852Z,95252.81
2023-05-14T13:30:49.453Z,95237.03
2023-05-14T13:36:13.302Z,95241.50
2023-05-14T13:41:41.397Z,95238.47
2023-05-14T13:47:10.497Z,95232.25
2023-05-14T13:52:35.443Z,95226.66
2023-05-14T13:58:01.914Z,95218.19
2023-05-14T14:03:26.483Z,95200.91
2023-05-14T14:08:51.731Z,95201.91
2023-05-14T14:14:16.281Z,95198.84
2023-05-14T14:19:42.040Z,95197.28
2023-05-14T14:25:05.501Z,95182.84
2023-05-14T14:30:35.323Z,95176.22
2023-05-14T14:35:59.101Z,95162.06
2023-05-14T14:41:22.818Z,95153.75
2023-05-14T14:46:52.316Z,95167.91
2023-05-14T14:52:18.327Z,95152.69
2023-05-14T14:57:45.556Z,95153.09
2023-05-14T15:03:11.446Z,95166.78
2023-05-14T15:08:46.682Z,95160.06
2023-05-14T15:14:13.649Z,95151.88
2023-05-14T15:19:40.723Z,95148.41
2023-05-14T15:25:09.151Z,95140.53
2023-05-14T15:30:37.939Z,95143.03
2023-05-14T15:36:15.271Z,95147.00
2023-05-14T15:41:40.260Z,95143.09
2023-05-14T15:47:04.045Z,95151.69
2023-05-14T15:52:27.489Z,95170.63
2023-05-14T15:57:51.887Z,95182.03
2023-05-14T16:03:23.215Z,95200.72
2023-05-14T16:08:52.370Z,95220.41
2023-05-14T16:14:24.910Z,95240.84
2023-05-14T16:19:55.367Z,95250.69
2023-05-14T16:25:26.876Z,95242.28
2023-05-14T16:31:04.682Z,95247.25
2023-05-14T16:36:37.503Z,95260.06
2023-05-14T16:42:17.765Z,95267.13
2023-05-14T16:47:42.556Z,95264.59
2023-05-14T16:53:07.155Z,95268.81
2023-05-14T16:58:30.711Z,95282.19
2023-05-14T17:03:55.520Z,95278.75
2023-05-14T17:09:22.383Z,95280.50
2023-05-14T17:14:48.159Z,95277.66
2023-05-14T17:19:52.082Z,95284.22
2023-05-14T17:25:00.080Z,95273.66
2023-05-14T17:30:31.979Z,95275.03
2023-05-14T17:36:12.885Z,95277.91
2023-05-14T17:41:36.458Z,95271.44
2023-05-14T17:47:06.014Z,95270.56
2023-05-14T17:52:30.862Z,95272.97
2023-05-14T17:57:55.227Z,95273.47
2023-05-14T18:03:09.482Z,95284.06
2023-05-14T18:08:30.188Z,95268.34
2023-05-14T18:13:58.917Z,95263.00
2023-05-14T18:19:03.480Z,95260.25
2023-05-14T18:24:07.969Z,95262.22
2023-05-14T18:29:39.958Z,95270.91
2023-05-14T18:34:44.054Z,95280.63
2023-05-14T18:39:49.204Z,95278.34
2023-05-14T18:44:55.391Z,95274.56
2023-05-14T18:50:04.874Z,95288.34
2023-05-14T18:55:32.044Z,95288.94
2023-05-14T19:00:42.816Z,95289.34
2023-05-14T19:05:57.651Z,95300.44
2023-05-14T19:11:10.017Z,95307.88
2023-05-14T19:16:13.774Z,95308.78
2023-05-14T19:21:24.169Z,95309.19
2023-05-14T19:26:31.006Z,95308.81
2023-05-14T19:31:39.568Z,95319.38
2023-05-14T19:36:51.192Z,95321.34
2023-05-14T19:41:57.243Z,95306.31
2023-05-14T19:47:03.529Z,95310.31
2023-05-14T19:57:42.863Z,95320.16
2023-05-14T20:02:45.811Z,95314.81
2023-05-14T20:07:48.895Z,95315.06
2023-05-14T20:12:55.047Z,95322.25
2023-05-14T20:17:59.517Z,95318.13
2023-05-14T20:23:05.915Z,95312.91
2023-05-14T20:28:08.503Z,95308.06
2023-05-14T20:33:15.115Z,95302.72
2023-05-14T20:38:20.021Z,95304.00
2023-05-14T20:43:22.832Z,95302.66
2023-05-14T20:48:26.635Z,95305.06
2023-05-14T20:53:30.367Z,95293.81
2023-05-14T20:58:41.003Z,95299.47
2023-05-14T21:03:45.068Z,95294.09
2023-05-14T21:08:47.875Z,95296.78
2023-05-14T21:13:50.783Z,95282.81
2023-05-14T21:18:54.695Z,95283.94
2023-05-14T21:23:59.339Z,95279.06
2023-05-14T21:29:11.955Z,95286.13
2023-05-14T21:34:15.123Z,95285.56
2023-05-14T21:39:18.925Z,95285.66
2023-05-14T21:44:22.984Z,95303.78
2023-05-14T21:49:27.812Z,95298.91
2023-05-14T21:54:36.287Z,95291.16
2023-05-14T21:59:41.026Z,95283.66
2023-05-14T22:04:46.107Z,95283.31
2023-05-14T22:09:52.787Z,95281.41
2023-05-14T22:14:55.989Z,95284.69
2023-05-14T22:20:00.407Z,95279.06
2023-05-14T22:25:03.323Z,95283.03
2023-05-14T22:30:06.715Z,95282.84
2023-05-14T22:35:10.464Z,95281.63
2023-05-14T22:40:17.813Z,95279.97
2023-05-14T22:45:22.229Z,95265.50
2023-05-14T22:50:25.584Z,95268.19
2023-05-14T22:55:28.767Z,95263.94
2023-05-14T23:00:32.227Z,95271.44
2023-05-14T23:05:35.865Z,95256.66
2023-05-14T23:10:39.159Z,95263.63
2023-05-14T23:15:43.438Z,95277.88
2023-05-14T23:20:46.936Z,95268.25
2023-05-14T23:25:52.751Z,95252.97
2023-05-14T23:30:56.476Z,95250.81
2023-05-14T23:35:59.997Z,95242.19
2023-05-14T23:41:04.266Z,95227.97
2023-05-14T23:46:09.088Z,95238.97
2023-05-14T23:51:13.756Z,95233.31
2023-05-14T23:56:16.949Z,95226.88
